LIMC/MXP METAR and TAF weather

Enter ICAO airport designator
Station Type Date Time Source
LIMC METAR 2022/01/29 13:50 UTC NOAA

LIMC 291350Z VRB02KT CAVOK 12/M03 Q1027 NOSIG


Station Type Date Time Source
LIMC Decoded METAR 2022/01/29 13:50 UTC NOAA

Milano / Malpensa, Italy (LIMC) 45-37N 008-44E 211M
Jan 29, 2022 - 08:50 AM EST / 2022.01.29 1350 UTC
Wind: Variable at 2 MPH (2 KT):0
Visibility: greater than 7 mile(s):0
Temperature: 53 F (12 C)
Dew Point: 26 F (-3 C)
Relative Humidity: 34%
Pressure (altimeter): 30.33 in. Hg (1027 hPa)
ob: LIMC 291350Z VRB02KT CAVOK 12/M03 Q1027 NOSIG
cycle: 14

Station Type Date Time Source
LIMC TAF 2022/01/29 12:22 UTC NOAA

TAF LIMC 291100Z 2912/3018 VRB05KT CAVOK

Example: see airport list